Gillette, WY (82716)

7:00 PM MDT on July 24, 2016 (GMT -0600)
Gillette-Campbell County | | Change Station

Elev 4364 ft 44.34 °N, 105.54 °W | Updated 7 minutes ago

Clear
Clear
85 °F
Feels Like 85 °F
N
7
Wind Variable Wind from ESE

Today
High -- | Low -- °F
--% Chance of Precip.
Yesterday
High -- | Low -- °F
Precip. -- in
Pressure 29.93 in
Visibility 10.0 miles
Clouds Clear
Dew Point 38 °F
Humidity 19%
Rainfall 0.00 in
Snow Depth Not available.
5:41 AM 8:36 PM
Waning Gibbous, 71% visible
METAR KGCC 250053Z AUTO 12006KT 10SM CLR 29/03 A3008 RMK AO2 SLP135 T02940033
Pressure 29.93 in
Visibility 10.0 miles
Clouds Clear
Dew Point 38 °F
Humidity 19%
Rainfall 0.00 in
Snow Depth Not available.
5:41 AM 8:36 PM
Waning Gibbous, 71% visible
METAR KGCC 250053Z AUTO 12006KT 10SM CLR 29/03 A3008 RMK AO2 SLP135 T02940033

10-Day Weather Forecast

Almanac

Astronomy

Jul. 24, 2016 Rise Set
Actual Time
Civil Twilight
Nautical Twilight
Astronomical Twilight
Moon
Length of Visible Light
Length of Day
Tomorrow will be .
, % of the Moon is Illuminated

Today's Extremes

State Highs State Lows

Community

WunderPhotos

Upload Photos

1,927,218 photos uploaded!

WunderBlog® & News

Nearby

Air Quality

  Air Quality AQ Index Pollutant
Not available.

Snow Depth

Station Depth Elevation

Earthquake Activity

City Distance Mag. Time & Date
Minimum magnitude displayed is 2.5.

Coastal Water Temperatures

Place Temperature

Stations

Nearby Weather Stations

Station Location Temp. Windchill Dew Point Humidity Wind Precip. Elev Updated Type
                   

Watches & Warnings

There are currently no watches in effect.